createdAt,value
2018-05-02T12:44:34.129Z,1009.8
2018-05-02T12:45:43.934Z,1009.8
2018-05-02T12:46:53.910Z,1009.76
2018-05-02T12:48:03.901Z,1009.72
2018-05-02T12:49:13.627Z,1009.72
2018-05-02T12:50:23.609Z,1009.68
2018-05-02T12:51:33.597Z,1009.68
2018-05-02T12:52:43.588Z,1009.63
2018-05-02T12:53:53.568Z,1009.56
2018-05-02T12:55:03.287Z,1009.58
2018-05-02T12:56:13.316Z,1009.48
2018-05-02T12:57:23.948Z,1009.51
2018-05-02T12:58:33.680Z,1009.48
2018-05-02T12:59:43.660Z,1009.5
2018-05-02T13:00:53.390Z,1009.48
2018-05-02T13:02:03.378Z,1009.45
2018-05-02T13:03:12.854Z,1009.39
2018-05-02T13:04:22.859Z,1009.3
2018-05-02T13:05:32.592Z,1009.27
2018-05-02T13:06:42.635Z,1009.26
2018-05-02T13:07:52.616Z,1009.28
2018-05-02T13:09:02.652Z,1009.27
2018-05-02T13:10:12.398Z,1009.25
2018-05-02T13:11:22.390Z,1009.24
2018-05-02T13:12:32.112Z,1009.32
2018-05-02T13:13:42.104Z,1009.21
2018-05-02T13:14:51.826Z,1009.22
2018-05-02T13:16:01.568Z,1009.24
2018-05-02T13:17:11.299Z,1009.25
2018-05-02T13:18:21.316Z,1009.24
2018-05-02T13:19:31.034Z,1009.27
2018-05-02T13:20:41.031Z,1009.28
2018-05-02T13:21:50.747Z,1009.27
2018-05-02T13:23:00.737Z,1009.28
2018-05-02T13:24:10.731Z,1009.28
2018-05-02T13:25:20.693Z,1009.21
2018-05-02T13:26:30.668Z,1009.2
2018-05-02T13:27:40.385Z,1009.22
2018-05-02T13:28:50.354Z,1009.19
2018-05-02T13:30:00.335Z,1009.21
2018-05-02T13:31:10.302Z,1009.13
2018-05-02T13:32:20.035Z,1009.02
2018-05-02T13:33:29.773Z,1008.9
2018-05-02T13:34:39.760Z,1008.91
2018-05-02T13:35:49.470Z,1008.84
2018-05-02T13:36:59.195Z,1008.76
2018-05-02T13:38:08.927Z,1008.74
2018-05-02T13:39:18.898Z,1008.76
2018-05-02T13:40:28.677Z,1008.79
2018-05-02T13:41:38.402Z,1008.74
2018-05-02T13:42:48.382Z,1008.75
2018-05-02T13:43:58.444Z,1008.79
2018-05-02T13:45:08.543Z,1008.74
2018-05-02T13:46:18.274Z,1008.83
2018-05-02T13:47:28.000Z,1008.81
2018-05-02T13:48:37.723Z,1008.84
2018-05-02T13:49:47.788Z,1008.76
2018-05-02T13:50:57.782Z,1008.74
2018-05-02T13:52:07.770Z,1008.69
2018-05-02T13:53:17.770Z,1008.72
2018-05-02T13:54:27.750Z,1008.73
2018-05-02T13:55:37.538Z,1008.72
2018-05-02T13:56:47.630Z,1008.64
2018-05-02T13:57:57.365Z,1008.69
2018-05-02T13:59:07.091Z,1008.61
2018-05-02T14:00:16.804Z,1008.59
2018-05-02T14:01:26.790Z,1008.52
2018-05-02T14:02:36.767Z,1008.55
2018-05-02T14:03:46.768Z,1008.49
2018-05-02T14:04:56.748Z,1008.48
2018-05-02T14:06:06.467Z,1008.37
2018-05-02T14:07:16.455Z,1008.42
2018-05-02T14:08:26.490Z,1008.43
2018-05-02T14:09:36.948Z,1008.47
2018-05-02T14:10:46.674Z,1008.49
2018-05-02T14:11:56.137Z,1008.51
2018-05-02T14:13:06.109Z,1008.49
2018-05-02T14:14:15.583Z,1008.44
2018-05-02T14:15:25.580Z,1008.47
2018-05-02T14:16:35.315Z,1008.41
2018-05-02T14:17:45.334Z,1008.4
2018-05-02T14:18:55.315Z,1008.33
2018-05-02T14:20:05.448Z,1008.34
2018-05-02T14:21:15.440Z,1008.31
2018-05-02T14:22:25.424Z,1008.31
2018-05-02T14:23:35.179Z,1008.32
2018-05-02T14:24:45.223Z,1008.37
2018-05-02T14:25:55.130Z,1008.33
2018-05-02T14:27:05.150Z,1008.26
2018-05-02T14:28:15.150Z,1008.18
2018-05-02T14:29:24.870Z,1008.08
2018-05-02T14:30:34.082Z,1008.09
2018-05-02T14:31:44.082Z,1008.08
2018-05-02T14:32:53.607Z,1008.11
2018-05-02T14:34:03.821Z,1008.09
2018-05-02T14:35:13.644Z,1008.2
2018-05-02T14:36:23.397Z,1008.19
2018-05-02T14:37:33.428Z,1008.14
2018-05-02T14:38:43.413Z,1008.12
2018-05-02T14:39:53.396Z,1008.12
2018-05-02T14:41:03.131Z,1008.1
2018-05-02T14:42:12.910Z,1008.09
2018-05-02T14:43:22.889Z,1008.11
2018-05-02T14:44:32.878Z,1008.2
2018-05-02T14:45:42.338Z,1008.21
2018-05-02T14:46:51.818Z,1008.26
2018-05-02T14:48:01.536Z,1008.25
2018-05-02T14:49:11.535Z,1008.27
2018-05-02T14:50:21.531Z,1008.25
2018-05-02T14:51:31.527Z,1008.19
2018-05-02T14:52:41.526Z,1008.14
2018-05-02T14:53:51.510Z,1008.14
2018-05-02T14:55:01.495Z,1008.11
2018-05-02T14:56:11.523Z,1008.06
2018-05-02T14:57:21.540Z,1008.05
2018-05-02T14:58:31.262Z,1008.07
2018-05-02T14:59:40.980Z,1008.06
2018-05-02T15:00:50.979Z,1008.09
2018-05-02T15:02:00.744Z,1008.12
2018-05-02T15:03:10.875Z,1008.15
2018-05-02T15:04:21.104Z,1008.08
2018-05-02T15:05:31.081Z,1008.06
2018-05-02T15:06:40.820Z,1008.08
2018-05-02T15:07:50.561Z,1008.01
2018-05-02T15:09:00.278Z,1007.98
2018-05-02T15:10:10.255Z,1007.95
2018-05-02T15:11:19.735Z,1007.94
2018-05-02T15:12:29.701Z,1007.96
2018-05-02T15:13:39.699Z,1008
2018-05-02T15:14:49.431Z,1007.96
2018-05-02T15:15:59.415Z,1007.99
2018-05-02T15:17:09.139Z,1007.96
2018-05-02T15:18:18.902Z,1007.97
2018-05-02T15:19:28.628Z,1007.95
2018-05-02T15:20:38.688Z,1007.95
2018-05-02T15:21:48.657Z,1007.97
2018-05-02T15:22:58.644Z,1007.98
2018-05-02T15:24:08.399Z,1008.02
2018-05-02T15:25:18.127Z,1007.99
2018-05-02T15:26:27.858Z,1007.97
2018-05-02T15:27:37.600Z,1007.98
2018-05-02T15:28:47.599Z,1008.01
2018-05-02T15:29:57.323Z,1008.02
2018-05-02T15:31:07.295Z,1008
2018-05-02T15:32:17.012Z,1007.94
2018-05-02T15:33:27.012Z,1007.98
2018-05-02T15:34:37.021Z,1007.9
2018-05-02T15:35:46.766Z,1007.9
2018-05-02T15:36:56.762Z,1007.91
2018-05-02T15:38:06.494Z,1007.91
2018-05-02T15:39:16.469Z,1007.97
2018-05-02T15:40:26.483Z,1007.98
2018-05-02T15:41:36.194Z,1007.92
2018-05-02T15:42:46.170Z,1007.92
2018-05-02T15:43:56.148Z,1007.89
2018-05-02T15:45:05.868Z,1007.93
2018-05-02T15:46:16.075Z,1007.92
2018-05-02T15:47:26.048Z,1007.89
2018-05-02T15:48:34.993Z,1007.85
2018-05-02T15:49:44.737Z,1007.85
2018-05-02T15:50:54.471Z,1007.82
2018-05-02T15:52:04.565Z,1007.82
2018-05-02T15:53:14.568Z,1007.87
2018-05-02T15:54:24.576Z,1007.83
2018-05-02T15:55:34.311Z,1007.88
2018-05-02T15:56:43.780Z,1007.84
2018-05-02T15:57:53.571Z,1007.82
2018-05-02T15:59:03.485Z,1007.82
2018-05-02T16:00:13.215Z,1007.79
2018-05-02T16:01:22.954Z,1007.77
2018-05-02T16:02:32.962Z,1007.73
2018-05-02T16:03:42.947Z,1007.71
2018-05-02T16:04:52.924Z,1007.65
2018-05-02T16:06:02.552Z,1007.6
2018-05-02T16:07:12.285Z,1007.61
2018-05-02T16:08:22.269Z,1007.54
2018-05-02T16:09:31.731Z,1007.52
2018-05-02T16:10:41.470Z,1007.51
2018-05-02T16:11:51.213Z,1007.48
2018-05-02T16:13:01.211Z,1007.54
2018-05-02T16:14:10.932Z,1007.52
2018-05-02T16:15:20.954Z,1007.53
2018-05-02T16:16:30.986Z,1007.53
2018-05-02T16:17:40.837Z,1007.55
2018-05-02T16:18:50.817Z,1007.5
2018-05-02T16:20:00.541Z,1007.55
2018-05-02T16:21:10.545Z,1007.54
2018-05-02T16:22:20.270Z,1007.56
2018-05-02T16:23:30.254Z,1007.55
2018-05-02T16:24:40.250Z,1007.51
2018-05-02T16:25:50.246Z,1007.5
2018-05-02T16:27:00.244Z,1007.55
2018-05-02T16:28:10.234Z,1007.5
2018-05-02T16:29:20.230Z,1007.48
2018-05-02T16:30:29.938Z,1007.47
2018-05-02T16:31:39.660Z,1007.51
2018-05-02T16:32:49.654Z,1007.43
2018-05-02T16:33:59.367Z,1007.46
2018-05-02T16:35:09.345Z,1007.46
2018-05-02T16:36:19.343Z,1007.47
2018-05-02T16:37:29.057Z,1007.45
2018-05-02T16:38:39.049Z,1007.43
2018-05-02T16:39:49.036Z,1007.41
2018-05-02T16:40:59.026Z,1007.4
2018-05-02T16:42:08.755Z,1007.41
2018-05-02T16:43:18.738Z,1007.37
2018-05-02T16:44:28.745Z,1007.43
2018-05-02T16:45:38.735Z,1007.46
2018-05-02T16:46:48.720Z,1007.45
2018-05-02T16:47:58.704Z,1007.41
2018-05-02T16:49:08.435Z,1007.41
2018-05-02T16:50:18.437Z,1007.36
2018-05-02T16:51:28.155Z,1007.31
2018-05-02T16:52:38.140Z,1007.3
2018-05-02T16:53:48.121Z,1007.27
2018-05-02T16:54:58.116Z,1007.31
2018-05-02T16:56:08.117Z,1007.32
2018-05-02T16:57:17.580Z,1007.3
2018-05-02T16:58:27.035Z,1007.27
2018-05-02T16:59:36.747Z,1007.27
2018-05-02T17:00:46.467Z,1007.28
2018-05-02T17:01:56.456Z,1007.27
2018-05-02T17:03:06.561Z,1007.29
2018-05-02T17:04:16.703Z,1007.33
2018-05-02T17:05:27.166Z,1007.31
2018-05-02T17:06:37.146Z,1007.28
2018-05-02T17:07:47.138Z,1007.31
2018-05-02T17:08:57.128Z,1007.3
2018-05-02T17:10:07.166Z,1007.28
2018-05-02T17:11:17.289Z,1007.24
2018-05-02T17:12:26.639Z,1007.27
2018-05-02T17:13:36.357Z,1007.31
2018-05-02T17:14:46.564Z,1007.33
2018-05-02T17:15:56.278Z,1007.32
2018-05-02T17:17:06.275Z,1007.27
2018-05-02T17:18:16.270Z,1007.35
2018-05-02T17:19:26.255Z,1007.35
2018-05-02T17:20:36.236Z,1007.33
2018-05-02T17:21:46.298Z,1007.32
2018-05-02T17:22:56.127Z,1007.33
2018-05-02T17:24:05.847Z,1007.32
2018-05-02T17:25:15.828Z,1007.26
2018-05-02T17:26:25.893Z,1007.26
2018-05-02T17:27:35.857Z,1007.22
2018-05-02T17:28:45.828Z,1007.26
2018-05-02T17:29:55.840Z,1007.23
2018-05-02T17:31:06.056Z,1007.22
2018-05-02T17:32:16.035Z,1007.21
2018-05-02T17:33:26.031Z,1007.19
2018-05-02T17:34:35.837Z,1007.18
2018-05-02T17:35:45.548Z,1007.18
2018-05-02T17:36:55.530Z,1007.18
2018-05-02T17:38:05.524Z,1007.18
2018-05-02T17:39:15.260Z,1007.2
2018-05-02T17:40:24.988Z,1007.12
2018-05-02T17:41:34.724Z,1007.14
2018-05-02T17:42:44.707Z,1007.16
2018-05-02T17:43:54.708Z,1007.14
2018-05-02T17:45:04.423Z,1007.13
2018-05-02T17:46:14.418Z,1007.14
2018-05-02T17:47:24.466Z,1007.16
2018-05-02T17:48:34.452Z,1007.17
2018-05-02T17:49:43.914Z,1007.16
2018-05-02T17:50:53.130Z,1007.15
2018-05-02T17:52:03.095Z,1007.11
2018-05-02T17:53:12.563Z,1007.08
2018-05-02T17:54:22.558Z,1007.02
2018-05-02T17:55:32.521Z,1007
2018-05-02T17:56:42.520Z,1007.02
2018-05-02T17:57:52.516Z,1007.02
2018-05-02T17:59:02.521Z,1007
2018-05-02T18:00:12.523Z,1007.02
2018-05-02T18:01:22.248Z,1007.02
2018-05-02T18:02:31.734Z,1007.04
2018-05-02T18:03:41.736Z,1007.07
2018-05-02T18:04:51.699Z,1007.05
2018-05-02T18:06:01.465Z,1007.04
2018-05-02T18:07:10.934Z,1007
2018-05-02T18:08:20.930Z,1006.95
2018-05-02T18:09:30.910Z,1006.96
2018-05-02T18:10:40.642Z,1006.97
2018-05-02T18:11:50.627Z,1006.96
2018-05-02T18:13:00.358Z,1007.01
2018-05-02T18:14:10.341Z,1006.99
2018-05-02T18:15:20.326Z,1007
2018-05-02T18:16:30.326Z,1006.96
2018-05-02T18:17:40.313Z,1006.95
2018-05-02T18:18:50.318Z,1006.94
2018-05-02T18:20:00.300Z,1006.95
2018-05-02T18:21:10.304Z,1006.95
2018-05-02T18:22:20.308Z,1006.96
2018-05-02T18:23:30.316Z,1006.98
2018-05-02T18:24:40.309Z,1007.02
2018-05-02T18:25:50.035Z,1006.99
2018-05-02T18:27:00.037Z,1006.97
2018-05-02T18:28:10.129Z,1007.01
2018-05-02T18:29:19.883Z,1006.97
2018-05-02T18:30:29.615Z,1007.01
2018-05-02T18:31:39.631Z,1006.97
2018-05-02T18:32:49.353Z,1006.96
2018-05-02T18:33:59.086Z,1006.92
2018-05-02T18:35:08.816Z,1006.98
2018-05-02T18:36:18.830Z,1006.98
2018-05-02T18:37:29.009Z,1006.96
2018-05-02T18:38:38.459Z,1006.98
2018-05-02T18:39:48.473Z,1006.97
2018-05-02T18:40:57.955Z,1006.93
2018-05-02T18:42:07.942Z,1006.92
2018-05-02T18:43:17.928Z,1006.91
2018-05-02T18:44:27.922Z,1006.9
2018-05-02T18:45:37.661Z,1006.9
2018-05-02T18:46:47.654Z,1006.92
2018-05-02T18:47:57.413Z,1006.91
2018-05-02T18:49:07.172Z,1006.89
2018-05-02T18:50:17.220Z,1006.95
2018-05-02T18:51:26.989Z,1006.94
2018-05-02T18:52:36.984Z,1006.92
2018-05-02T18:53:46.974Z,1006.91
2018-05-02T18:54:56.970Z,1006.91
2018-05-02T18:56:06.704Z,1006.88
2018-05-02T18:57:16.692Z,1006.91
2018-05-02T18:58:26.789Z,1006.84
2018-05-02T18:59:37.100Z,1006.81
2018-05-02T19:00:47.115Z,1006.81
2018-05-02T19:01:56.585Z,1006.78
2018-05-02T19:03:06.566Z,1006.79
2018-05-02T19:04:16.297Z,1006.76
2018-05-02T19:05:26.293Z,1006.78
2018-05-02T19:06:36.026Z,1006.78
2018-05-02T19:07:46.012Z,1006.78
2018-05-02T19:08:56.006Z,1006.74
2018-05-02T19:10:05.983Z,1006.75
2018-05-02T19:11:16.053Z,1006.75
2018-05-02T19:12:26.030Z,1006.74
2018-05-02T19:13:35.753Z,1006.71
2018-05-02T19:14:45.466Z,1006.67
2018-05-02T19:15:55.201Z,1006.68
2018-05-02T19:17:05.191Z,1006.74
2018-05-02T19:18:14.932Z,1006.78
2018-05-02T19:19:24.932Z,1006.79
2018-05-02T19:20:34.662Z,1006.84
2018-05-02T19:21:44.642Z,1006.86
2018-05-02T19:22:54.627Z,1006.83
2018-05-02T19:24:04.336Z,1006.85
2018-05-02T19:25:13.893Z,1006.83
2018-05-02T19:26:23.878Z,1006.88
2018-05-02T19:27:33.598Z,1006.85
2018-05-02T19:28:43.590Z,1006.87
2018-05-02T19:29:53.634Z,1006.87
2018-05-02T19:31:03.705Z,1006.92
2018-05-02T19:32:13.713Z,1006.89
2018-05-02T19:33:23.443Z,1006.87
2018-05-02T19:34:33.418Z,1006.85
2018-05-02T19:35:43.146Z,1006.83
2018-05-02T19:36:52.873Z,1006.87
2018-05-02T19:38:02.863Z,1006.85
2018-05-02T19:39:12.833Z,1006.78
2018-05-02T19:40:22.883Z,1006.8
2018-05-02T19:41:32.614Z,1006.83
2018-05-02T19:42:42.457Z,1006.8
2018-05-02T19:43:52.736Z,1006.79
2018-05-02T19:45:02.463Z,1006.77
2018-05-02T19:46:12.471Z,1006.74
2018-05-02T19:47:22.213Z,1006.74
2018-05-02T19:48:32.181Z,1006.7
2018-05-02T19:49:41.915Z,1006.71
2018-05-02T19:50:51.623Z,1006.68
2018-05-02T19:52:01.373Z,1006.71
2018-05-02T19:53:11.389Z,1006.68
2018-05-02T19:54:21.377Z,1006.71
2018-05-02T19:55:31.381Z,1006.71
2018-05-02T19:56:41.384Z,1006.7
2018-05-02T19:57:51.359Z,1006.72
2018-05-02T19:59:01.357Z,1006.71
2018-05-02T20:00:11.078Z,1006.7
2018-05-02T20:01:21.082Z,1006.69
2018-05-02T20:02:30.812Z,1006.72
2018-05-02T20:03:40.546Z,1006.74
2018-05-02T20:04:50.545Z,1006.72
2018-05-02T20:06:00.527Z,1006.65
2018-05-02T20:07:10.527Z,1006.59
2018-05-02T20:08:20.508Z,1006.61
2018-05-02T20:09:30.512Z,1006.54
2018-05-02T20:10:40.494Z,1006.55
2018-05-02T20:11:50.506Z,1006.53
2018-05-02T20:13:00.564Z,1006.54
2018-05-02T20:14:10.307Z,1006.52
2018-05-02T20:15:20.324Z,1006.51
2018-05-02T20:16:30.058Z,1006.45
2018-05-02T20:17:39.774Z,1006.46
2018-05-02T20:18:49.774Z,1006.49
2018-05-02T20:19:59.529Z,1006.48
2018-05-02T20:21:09.269Z,1006.52
2018-05-02T20:22:19.236Z,1006.52
2018-05-02T20:23:29.280Z,1006.49
2018-05-02T20:24:39.270Z,1006.47
2018-05-02T20:25:49.235Z,1006.46
2018-05-02T20:26:58.449Z,1006.44
2018-05-02T20:28:08.441Z,1006.44
2018-05-02T20:29:18.427Z,1006.43
2018-05-02T20:30:28.458Z,1006.37
2018-05-02T20:31:38.543Z,1006.31
2018-05-02T20:32:48.008Z,1006.24
2018-05-02T20:33:57.980Z,1006.25
2018-05-02T20:35:07.944Z,1006.25
2018-05-02T20:36:17.951Z,1006.29
2018-05-02T20:37:27.465Z,1006.29
2018-05-02T20:38:37.189Z,1006.32
2018-05-02T20:39:47.191Z,1006.35
2018-05-02T20:40:56.664Z,1006.37
2018-05-02T20:42:06.497Z,1006.31
2018-05-02T20:43:16.585Z,1006.34
2018-05-02T20:44:26.328Z,1006.31
2018-05-02T20:45:36.308Z,1006.25
2018-05-02T20:46:46.058Z,1006.23
2018-05-02T20:47:56.046Z,1006.26
2018-05-02T20:49:05.777Z,1006.22
2018-05-02T20:50:15.861Z,1006.27
2018-05-02T20:51:25.575Z,1006.3
2018-05-02T20:52:35.311Z,1006.3
2018-05-02T20:53:45.295Z,1006.31
2018-05-02T20:54:55.169Z,1006.32
2018-05-02T20:56:06.208Z,1006.29
2018-05-02T20:57:16.205Z,1006.25
2018-05-02T20:58:25.932Z,1006.24
2018-05-02T20:59:35.941Z,1006.18
2018-05-02T21:00:45.948Z,1006.18
2018-05-02T21:01:55.658Z,1006.12
2018-05-02T21:03:05.657Z,1006.05
2018-05-02T21:04:15.380Z,1006.04
2018-05-02T21:05:25.352Z,1006.01
2018-05-02T21:06:35.344Z,1005.98
2018-05-02T21:07:45.346Z,1005.96
2018-05-02T21:08:55.318Z,1005.93
2018-05-02T21:10:05.292Z,1005.91
2018-05-02T21:11:15.285Z,1005.95
2018-05-02T21:12:25.253Z,1005.95
2018-05-02T21:13:35.241Z,1005.95
2018-05-02T21:14:44.965Z,1005.96
2018-05-02T21:15:54.951Z,1005.97
2018-05-02T21:17:04.931Z,1005.93
2018-05-02T21:18:14.647Z,1005.95
2018-05-02T21:19:24.355Z,1005.95
2018-05-02T21:20:34.343Z,1005.93
2018-05-02T21:21:44.387Z,1005.89
2018-05-02T21:22:54.388Z,1005.9
2018-05-02T21:24:04.381Z,1005.87
2018-05-02T21:25:14.348Z,1005.89
2018-05-02T21:26:24.319Z,1005.94
2018-05-02T21:27:33.788Z,1006.03
2018-05-02T21:28:43.766Z,1006.16
2018-05-02T21:29:53.751Z,1006.18
2018-05-02T21:31:03.583Z,1006.21
2018-05-02T21:32:13.704Z,1006.23
2018-05-02T21:33:23.681Z,1006.24
2018-05-02T21:34:33.712Z,1006.24
2018-05-02T21:35:43.692Z,1006.25
2018-05-02T21:36:53.658Z,1006.27
2018-05-02T21:38:03.636Z,1006.23
2018-05-02T21:39:13.365Z,1006.17
2018-05-02T21:40:23.347Z,1006.11
2018-05-02T21:41:33.320Z,1006.17
2018-05-02T21:42:43.284Z,1006.14
2018-05-02T21:43:53.266Z,1006.16
2018-05-02T21:45:03.250Z,1006.16
2018-05-02T21:46:12.978Z,1006.13
2018-05-02T21:47:22.946Z,1006.05
2018-05-02T21:48:32.928Z,1005.96
2018-05-02T21:49:42.647Z,1005.94
2018-05-02T21:50:52.386Z,1005.91
2018-05-02T21:52:01.857Z,1005.9
2018-05-02T21:53:11.856Z,1005.93
2018-05-02T21:54:21.917Z,1005.93
2018-05-02T21:55:31.992Z,1005.88
2018-05-02T21:56:41.783Z,1005.91
2018-05-02T21:57:51.512Z,1005.84
2018-05-02T21:59:00.980Z,1005.76
2018-05-02T22:00:10.695Z,1005.72
2018-05-02T22:01:20.690Z,1005.77
2018-05-02T22:02:30.663Z,1005.81
2018-05-02T22:03:40.646Z,1005.87
2018-05-02T22:04:50.636Z,1005.84
2018-05-02T22:06:00.353Z,1005.82
2018-05-02T22:07:10.060Z,1005.76
2018-05-02T22:08:20.041Z,1005.72
2018-05-02T22:09:30.004Z,1005.74
2018-05-02T22:10:39.723Z,1005.7
2018-05-02T22:11:49.689Z,1005.65
2018-05-02T22:12:59.664Z,1005.66
2018-05-02T22:14:09.637Z,1005.65
2018-05-02T22:15:19.347Z,1005.65
2018-05-02T22:16:29.334Z,1005.63
2018-05-02T22:17:39.309Z,1005.63
2018-05-02T22:18:49.037Z,1005.65
2018-05-02T22:19:58.767Z,1005.52
2018-05-02T22:21:08.497Z,1005.55
2018-05-02T22:22:18.482Z,1005.46
2018-05-02T22:23:28.465Z,1005.5
2018-05-02T22:24:38.526Z,1005.57
2018-05-02T22:25:48.497Z,1005.53
2018-05-02T22:26:58.207Z,1005.56
2018-05-02T22:28:07.930Z,1005.61
2018-05-02T22:29:17.917Z,1005.62
2018-05-02T22:30:27.889Z,1005.62
2018-05-02T22:31:37.865Z,1005.57
2018-05-02T22:32:47.851Z,1005.55
2018-05-02T22:33:57.819Z,1005.51
2018-05-02T22:35:07.537Z,1005.54
2018-05-02T22:36:17.255Z,1005.53
2018-05-02T22:37:27.244Z,1005.55
2018-05-02T22:38:36.951Z,1005.51
2018-05-02T22:39:46.934Z,1005.51
2018-05-02T22:40:56.647Z,1005.47
2018-05-02T22:42:06.118Z,1005.39
2018-05-02T22:43:15.842Z,1005.33
2018-05-02T22:44:25.553Z,1005.3
2018-05-02T22:45:35.268Z,1005.33
2018-05-02T22:46:44.981Z,1005.35
2018-05-02T22:47:54.703Z,1005.36
2018-05-02T22:49:04.672Z,1005.36
2018-05-02T22:50:14.649Z,1005.37
2018-05-02T22:51:24.615Z,1005.39
2018-05-02T22:52:34.599Z,1005.44
2018-05-02T22:53:44.060Z,1005.51
2018-05-02T22:54:54.031Z,1005.52
2018-05-02T22:56:04.001Z,1005.55
2018-05-02T22:57:13.722Z,1005.58
2018-05-02T22:58:23.682Z,1005.57
2018-05-02T22:59:33.150Z,1005.57
2018-05-02T23:00:42.868Z,1005.58
2018-05-02T23:01:52.580Z,1005.64
2018-05-02T23:03:02.547Z,1005.68
2018-05-02T23:04:12.525Z,1005.75
2018-05-02T23:05:22.489Z,1005.77
2018-05-02T23:06:32.477Z,1005.82
2018-05-02T23:07:42.446Z,1005.79
2018-05-02T23:08:52.162Z,1005.82
2018-05-02T23:10:02.139Z,1005.87
2018-05-02T23:11:12.112Z,1005.91
2018-05-02T23:12:21.819Z,1005.94
2018-05-02T23:13:31.795Z,1005.94
2018-05-02T23:14:41.757Z,1005.95
2018-05-02T23:15:51.478Z,1005.88
2018-05-02T23:17:00.405Z,1005.88
2018-05-02T23:18:10.388Z,1005.88
2018-05-02T23:19:20.591Z,1005.88
2018-05-02T23:20:30.563Z,1005.81
2018-05-02T23:21:40.277Z,1005.79
2018-05-02T23:22:50.241Z,1005.72
2018-05-02T23:23:59.959Z,1005.68
2018-05-02T23:25:09.931Z,1005.63
2018-05-02T23:26:19.896Z,1005.57
2018-05-02T23:27:29.605Z,1005.57
2018-05-02T23:28:39.582Z,1005.57
2018-05-02T23:29:49.555Z,1005.56
2018-05-02T23:30:59.531Z,1005.56
2018-05-02T23:32:09.240Z,1005.51
2018-05-02T23:33:19.202Z,1005.53
2018-05-02T23:34:29.185Z,1005.51
2018-05-02T23:35:39.158Z,1005.41
2018-05-02T23:36:48.875Z,1005.34
2018-05-02T23:37:58.847Z,1005.33
2018-05-02T23:39:08.829Z,1005.32
2018-05-02T23:40:18.810Z,1005.35
2018-05-02T23:41:28.511Z,1005.35
2018-05-02T23:42:38.481Z,1005.29
2018-05-02T23:43:48.475Z,1005.23
2018-05-02T23:44:58.448Z,1005.16
2018-05-02T23:46:07.902Z,1005.09
2018-05-02T23:47:17.867Z,1005.07
2018-05-02T23:48:27.589Z,1005.09
2018-05-02T23:49:37.562Z,1005.1
2018-05-02T23:50:47.531Z,1005.09
2018-05-02T23:51:57.236Z,1005.06
2018-05-02T23:53:06.954Z,1005.07
2018-05-02T23:54:16.658Z,1005.04
2018-05-02T23:55:26.615Z,1005.01
2018-05-02T23:56:36.586Z,1005.06
2018-05-02T23:57:46.551Z,1005.1
2018-05-02T23:58:56.525Z,1005.06
